»·PEaware :: N145CZ KBFL-KMHV

N145CZ :: KBFL-KMHV

FLIGHT INFORMATION

Flight Status: Arrived
Operator: Privately registered:
United States
More flights under this callsign
Pilot: Tod M. (44471)
Aircraft: Unknown
(GE58)
More flights by this aircraft type
Origin: KBFL Meadows
United States
Destination: KMHV Mojave
United States
More flights between these airports :: More routes between these airports
Route:
File this flight plan on PilotEdge
Remarks: CAT 6
Altitude:
(Current/Filed)
9,500ft
Speed:
(Current/Filed)
150kts
Departed: 29-Oct-23 12:40 PM
Arrived: 29-Oct-23 01:09 PM
Distance/Time
Traveled:
120nm/0:29
Distance/Time
To Go:
Arrived

Flight Plot

Page will automatically refresh every two minutes.


Map Options




Map Legend


Flown Route
Filed Route
Departure Airport
Arrival Airport
Navaid (VOR, NDB)
Fix

Horizontal Profiles

Position Reports

Time Latitude Longitude Heading Altitude Ground
Speed
29-Oct-23 12:16 35.435617 -119.053242 181 490ft 0kts
29-Oct-23 12:17 35.435617 -119.053242 181 490ft 0kts
29-Oct-23 12:18 35.435617 -119.053242 181 490ft 0kts
29-Oct-23 12:19 35.435617 -119.053242 181 490ft 0kts
29-Oct-23 12:20 35.435617 -119.053242 181 490ft 0kts
29-Oct-23 12:21 35.435617 -119.053242 181 490ft 0kts
29-Oct-23 12:22 35.435617 -119.053242 181 490ft 0kts
29-Oct-23 12:23 35.435617 -119.053242 181 490ft 0kts
29-Oct-23 12:24 35.435617 -119.053242 181 490ft 0kts
29-Oct-23 12:25 35.435617 -119.053242 181 490ft 0kts
29-Oct-23 12:26 35.435617 -119.053242 181 490ft 0kts
29-Oct-23 12:27 35.435610 -119.053242 178 490ft 0kts
29-Oct-23 12:28 35.435169 -119.054099 210 489ft 8kts
29-Oct-23 12:29 35.431465 -119.051058 134 480ft 32kts
29-Oct-23 12:30 35.428378 -119.047276 146 473ft 10kts
29-Oct-23 12:31 35.425964 -119.044443 174 471ft 6kts
29-Oct-23 12:32 35.425735 -119.044758 236 471ft 0kts
29-Oct-23 12:33 35.425735 -119.044759 236 471ft 0kts
29-Oct-23 12:34 35.425735 -119.044759 236 471ft 0kts
29-Oct-23 12:35 35.425735 -119.044759 236 471ft 0kts
29-Oct-23 12:36 35.425735 -119.044759 236 471ft 0kts
29-Oct-23 12:37 35.425735 -119.044759 236 471ft 0kts
29-Oct-23 12:38 35.426106 -119.046910 314 478ft 29kts
29-Oct-23 12:39 35.449346 -119.075154 315 1909ft 157kts
29-Oct-23 12:40 35.488589 -119.068226 66 3434ft 174kts
29-Oct-23 12:41 35.464854 -119.023957 138 4456ft 151kts
29-Oct-23 12:42 35.434272 -118.989338 138 5567ft 149kts
29-Oct-23 12:43 35.403316 -118.953906 142 7017ft 149kts
29-Oct-23 12:44 35.375959 -118.917211 118 8395ft 148kts
29-Oct-23 12:45 35.355935 -118.871909 119 9553ft 155kts
29-Oct-23 12:46 35.336831 -118.824271 117 9665ft 155kts
29-Oct-23 12:47 35.316108 -118.779362 124 9302ft 148kts
29-Oct-23 12:48 35.297852 -118.725460 118 9503ft 188kts
29-Oct-23 12:49 35.274295 -118.672233 156 9495ft 170kts
29-Oct-23 12:50 35.228503 -118.674762 177 9505ft 168kts
29-Oct-23 12:51 35.182612 -118.667077 174 9493ft 163kts
29-Oct-23 12:52 35.142513 -118.641668 152 9491ft 161kts
29-Oct-23 12:53 35.103521 -118.614325 151 9494ft 162kts
29-Oct-23 12:54 35.080414 -118.575355 72 9498ft 162kts
29-Oct-23 12:55 35.094245 -118.519138 72 9349ft 178kts
29-Oct-23 12:56 35.108493 -118.461562 73 8854ft 175kts
29-Oct-23 12:57 35.122015 -118.403282 91 8080ft 180kts
29-Oct-23 12:58 35.113172 -118.345320 102 7280ft 171kts
29-Oct-23 12:59 35.103892 -118.288477 102 6464ft 161kts
29-Oct-23 13:00 35.100549 -118.239138 91 5098ft 139kts
29-Oct-23 13:01 35.094095 -118.197250 111 4420ft 125kts
29-Oct-23 13:02 35.080034 -118.160575 147 4161ft 110kts
29-Oct-23 13:03 35.054911 -118.148720 166 3741ft 101kts
29-Oct-23 13:04 35.024126 -118.156228 250 3838ft 122kts
29-Oct-23 13:05 35.015811 -118.193188 262 3718ft 108kts
29-Oct-23 13:06 35.036358 -118.200787 51 3674ft 97kts
29-Oct-23 13:07 35.055360 -118.178425 36 3201ft 94kts
29-Oct-23 13:08 35.059208 -118.154324 91 2757ft 36kts
29-Oct-23 13:09 35.058405 -118.149710 135 2752ft 0kts
29-Oct-23 13:10 35.057882 -118.149579 216 2752ft 0kts
29-Oct-23 13:11 35.057190 -118.151349 253 2757ft 0kts
29-Oct-23 13:12 35.057187 -118.151372 266 2757ft 0kts
29-Oct-23 13:13 35.057187 -118.151372 266 2757ft 0kts
29-Oct-23 13:14 35.057187 -118.151372 266 2757ft 0kts
29-Oct-23 13:15 35.057187 -118.151372 266 2757ft 0kts
29-Oct-23 13:16 35.057187 -118.151372 266 2757ft 0kts
29-Oct-23 13:19 34.101133 -117.227736 15 1145ft 0kts
29-Oct-23 13:20 34.101133 -117.227736 15 1145ft 0kts
29-Oct-23 13:21 34.101133 -117.227736 15 1145ft 0kts
29-Oct-23 13:22 34.101133 -117.227736 15 1145ft 0kts

Navigation Log

Ident Type
Flight plan parsing failed, navigation log unavailable